Aérodrome :
LOGIN :

S'inscrire | Disclaimer

   EN    FR    IT 

 










Légende :    VFR   VFR Marginal   IFR   IFR Intensif   IFR Très Intensif
Visi : 
Plafond : 
>= 8 km
>= 3000ft
5 à 8 km
1000 à 3000 ft
1500m à 5 km
500 à 1000 ft
800 à 1500m
200 à 500 ft
< 800m
< 200 ft
Symboles :   Orages  Brouillard  Fortes neiges  Fortes précipitations  Vent > 20 kt
SIGMETs :   Divers  Orages  Givrage  Turbulence  Onde Orograph.  Cendres Volcan.






- Altitude de l'aérodrome : 1325 ft
- Code IATA : EBU


LFMH - St-Etienne Boutheon

DERNIER METAR :
  • 032100Z AUTO 31004KT 280V350 CAVOK 22/15 Q1020

METARs EXPIRÉS :
  • 032030Z AUTO VRB03KT CAVOK 23/15 Q1020
  • 032000Z AUTO 32004KT 280V350 CAVOK 23/15 Q1019
  • 031930Z AUTO 31004KT 280V350 CAVOK 24/15 Q1019
  • 031900Z AUTO 32005KT 290V350 CAVOK 25/16 Q1019
  • 031830Z AUTO 33005KT 280V360 CAVOK 26/16 Q1019
  • 030500Z AUTO 15002KT CAVOK 16/14 Q1020

Prévision TAF périmée.
ATIS : +33 4 77 36 17 51



MET'MAP, la Météo Aéronautique d'un coup d'oeil ! - Copyright ORBIFLY Décembre 2007 - Disclaimer

ORBIFLY MET'MAP TEAM :

Programmation & Développement : Alexandra Zaïnal
Sur une idée originale de : Baudouin d'Aumeries
Soutien technique & logistique : Manuel Goepfert
Assistance : Marc-Olivier Méhu




SOURCES & CREDITS :

   NOAA